Meteo Giornale » Osservazioni meteo Italia » Firenze-Peretola

ore: 14:20 - Osservazioni Meteo Firenze-Peretola
Lat. 43° 48' N Lon. 11° 12' E Alt. 40 metri s.l.m.

sereno Europe/Rome

11 °C

Sereno

Temp. 24 Ore

5 °C

14 °C

Nord/Nord-Est

14.8 Km/h

Dew point -2 °C

Umidità 40 %

Visibilità  10 Km

Il sole sorge alle ore 07:37

Il sole tramonta alle ore 16:39

Data e Ora Cielo e Fenomeni T °C DP °C Um. % Pres. hPa Vis. km Vento km/h
Oggi h: 14:20 sereno Sereno 11 -2 40 1013 10 N/NE 14.8
Oggi h: 13:50 sereno Sereno 11 -4 34 1014 10 NE 16.7
Oggi h: 13:20 sereno Sereno 11 -4 34 1014 10 N 11.1
Oggi h: 12:50 sereno Sereno 11 -5 32 1015 10 N 5.5
Oggi h: 12:20 sereno Sereno 11 -3 37 1015 10 NO 13
Oggi h: 11:50 sereno Sereno 11 -4 34 1016 10 N 7.4
Oggi h: 11:20 sereno Sereno 10 -4 36 1016 10 N/NE 16.7
Oggi h: 10:50 sereno Sereno 10 -4 36 1017 10 N 18.5
Oggi h: 10:20 sereno Sereno 10 -4 36 1017 10 N 9.3
Oggi h: 09:50 sereno Sereno 8 -1 52 1017 10 S 9.3
Oggi h: 09:20 sereno Sereno 7 -1 56 1017 10 S/SO 7.4
Oggi h: 08:50 sereno Sereno 6 0 65 1017 10 S/SO 11.1
Oggi h: 08:20 sereno Sereno 5 -0 70 1017 10 N 5.5
Oggi h: 07:50 sereno Sereno 6 -0 65 1017 10 N 3.7
Oggi h: 07:20 sereno Sereno 6 -1 60 1017 10 N 7.4
Oggi h: 06:50 sereno Sereno 5 0 70 1017 10 S/SO 13
Oggi h: 06:20 sereno Sereno 8 -0 56 1018 10 N 9.3
Oggi h: 05:50 sereno Sereno 8 -0 56 1018 10 N/NO 13
Oggi h: 05:20 sereno Sereno 7 1 65 1018 10 NO 14.8
Oggi h: 04:50 sereno Sereno 7 1 65 1019 10 NO 13
Oggi h: 04:20 sereno Sereno 7 1 65 1019 10 NO 11.1
Oggi h: 03:50 sereno Sereno 7 1 65 1019 10 NO 9.3
Oggi h: 03:20 sereno Sereno 7 1 65 1019 10 NO 11.1
Oggi h: 02:50 sereno Sereno 7 2 70 1019 10 NO 9.3
Oggi h: 02:20 sereno Sereno 7 2 70 1019 10 NO 13
Oggi h: 01:50 sereno Sereno 7 2 70 1019 10 N/NO 9.3
Oggi h: 01:20 sereno Sereno 8 2 65 1019 10 NO 9.3
Oggi h: 00:50 sereno Sereno 9 2 61 1020 10 N 14.8
Oggi h: 00:20 sereno Sereno 9 2 61 1020 10 N 11.1
Ieri h: 23:50 sereno Sereno 10 2 57 1020 10 N 13
Ieri h: 23:20 sereno Sereno 9 2 61 1020 10 N 11.1
Ieri h: 22:50 sereno Sereno 10 2 57 1020 10 N 16.7
Ieri h: 22:20 sereno Sereno 10 2 57 1020 10 N/NO 13
Ieri h: 21:50 sereno Sereno 9 2 61 1020 10 N/NE 11.1
Ieri h: 21:20 sereno Sereno 10 2 57 1020 10 N/NE 11.1
Ieri h: 20:50 sereno Sereno 10 2 57 1020 10 N 13
Ieri h: 20:20 sereno Sereno 10 2 57 1019 10 N 11.1
Ieri h: 19:50 sereno Sereno 11 2 53 1019 10 N 14.8
Ieri h: 19:20 sereno Sereno 11 2 53 1019 10 N/NE 24
Ieri h: 18:50 sereno Sereno 11 1 50 1018 10 N/NE 20.3
Ieri h: 18:20 sereno Sereno 11 1 50 1018 10 NE 18.5
Ieri h: 17:50 sereno Sereno 11 1 50 1017 10 NE 20.3
Ieri h: 17:20 sereno Sereno 12 0 43 1017 10 NE 13
Ieri h: 16:50 sereno Sereno 12 1 46 1017 10 NE 9.3
Ieri h: 16:20 sereno Sereno 13 1 43 1017 10 N/NE 14.8
Ieri h: 15:50 sereno Sereno 13 2 47 1017 10 N/NE 14.8
Ieri h: 15:20 sereno Sereno 13 2 47 1017 10 N/NE 22.2
Ieri h: 14:50 poco_nuvoloso Poco Nuvoloso 14 2 44 1016 10 N/NE 20.3
Ieri h: 14:20 poco_nuvoloso Poco Nuvoloso 14 2 44 1016 10 N/NE 22.2
Ieri h: 13:50 poco_nuvoloso Poco Nuvoloso 14 2 44 1016 10 N/NE 14.8